Time;durP1;ratioP1;P1;durP2;ratioP2;P2;SDS_P1;SDS_P2;PMS_P1;PMS_P2;Temp;Humidity;BMP_temperature;BMP_pressure;BME280_temperature;BME280_humidity;BME280_pressure;Samples;Min_cycle;Max_cycle;Signal;HPM_P1;HPM_P2
2022/11/30 00:00:51;;;;;;;21.95;19.65;;;;;;;;;;5120714;28;20210;-69
2022/11/30 00:03:20;;;;;;;18.92;17.02;;;;;;;;;;5120425;28;20211;-69
2022/11/30 00:05:48;;;;;;;15.80;14.30;;;;;;;;;;5120776;28;20202;-69
2022/11/30 00:08:16;;;;;;;14.65;13.25;;;;;;;;;;5120221;27;20233;-69
2022/11/30 00:10:44;;;;;;;14.73;13.18;;;;;;;;;;5118998;28;20454;-68
2022/11/30 00:13:11;;;;;;;14.55;13.05;;;;;;;;;;5119741;28;20199;-69
2022/11/30 00:15:39;;;;;;;14.10;12.70;;;;;;;;;;5120347;28;20195;-69
2022/11/30 00:18:07;;;;;;;13.20;11.90;;;;;;;;;;5120110;28;20203;-69
2022/11/30 00:20:36;;;;;;;12.85;11.60;;;;;;;;;;5120149;28;20534;-68
2022/11/30 00:23:04;;;;;;;12.80;11.60;;;;;;;;;;5119321;28;20227;-69
2022/11/30 00:25:31;;;;;;;12.68;11.52;;;;;;;;;;5119672;28;20199;-69
2022/11/30 00:28:01;;;;;;;11.73;10.55;;;;;;;;;;5119621;28;20227;-69
2022/11/30 00:30:29;;;;;;;11.90;10.70;;;;;;;;;;5119241;28;20605;-69
2022/11/30 00:32:57;;;;;;;11.95;10.68;;;;;;;;;;5119846;28;20227;-69
2022/11/30 00:35:25;;;;;;;11.82;10.63;;;;;;;;;;5119128;28;20203;-69
2022/11/30 00:37:54;;;;;;;11.70;10.50;;;;;;;;;;5118977;28;20562;-69
2022/11/30 00:40:22;;;;;;;10.82;9.73;;;;;;;;;;5119509;28;20199;-69
2022/11/30 00:42:50;;;;;;;10.43;9.35;;;;;;;;;;5119680;28;20210;-69
2022/11/30 00:45:18;;;;;;;10.63;9.63;;;;;;;;;;5119746;28;20584;-69
2022/11/30 00:47:45;;;;;;;10.27;9.20;;;;;;;;;;5119752;28;20235;-69
2022/11/30 00:50:13;;;;;;;10.02;9.02;;;;;;;;;;5119897;28;20225;-69
2022/11/30 00:52:41;;;;;;;10.20;9.20;;;;;;;;;;5119877;28;20264;-69
2022/11/30 00:55:10;;;;;;;9.88;8.98;;;;;;;;;;5119449;28;20203;-69
2022/11/30 00:57:38;;;;;;;9.90;8.98;;;;;;;;;;5119808;28;20633;-69
2022/11/30 01:00:06;;;;;;;9.20;8.30;;;;;;;;;;5119453;28;20253;-69
2022/11/30 01:02:34;;;;;;;9.27;8.38;;;;;;;;;;5119031;28;20306;-69
2022/11/30 01:05:02;;;;;;;8.75;7.95;;;;;;;;;;5119287;28;20203;-69
2022/11/30 01:07:30;;;;;;;8.80;8.00;;;;;;;;;;5119108;28;20223;-69
2022/11/30 01:09:57;;;;;;;8.38;7.57;;;;;;;;;;5118902;28;20252;-69
2022/11/30 01:12:27;;;;;;;9.00;8.10;;;;;;;;;;5118314;28;20202;-69
2022/11/30 01:14:54;;;;;;;8.48;7.68;;;;;;;;;;5118355;28;20214;-69
2022/11/30 01:17:22;;;;;;;8.82;8.00;;;;;;;;;;5118464;28;20198;-69
2022/11/30 01:19:50;;;;;;;8.45;7.65;;;;;;;;;;5118337;28;20211;-69
2022/11/30 01:22:17;;;;;;;8.10;7.30;;;;;;;;;;5118221;28;20299;-69
2022/11/30 01:24:45;;;;;;;7.55;6.85;;;;;;;;;;5118495;28;20226;-69
2022/11/30 01:27:13;;;;;;;8.70;7.90;;;;;;;;;;5118355;28;20231;-69
2022/11/30 01:29:42;;;;;;;7.70;7.00;;;;;;;;;;5118186;27;20203;-69
2022/11/30 01:32:10;;;;;;;7.25;6.55;;;;;;;;;;5117740;28;20207;-69
2022/11/30 01:34:37;;;;;;;7.43;6.72;;;;;;;;;;5117977;28;20207;-69
2022/11/30 01:37:05;;;;;;;7.93;7.13;;;;;;;;;;5118899;28;20359;-68
2022/11/30 01:39:33;;;;;;;7.80;7.10;;;;;;;;;;5118766;28;20199;-69
2022/11/30 01:42:00;;;;;;;7.28;6.57;;;;;;;;;;5118569;28;20275;-69
2022/11/30 01:44:55;;;;;;;7.30;6.60;;;;;;;;;;5118725;28;20206;-69
2022/11/30 01:47:29;;;;;;;6.72;6.07;;;;;;;;;;5082554;28;20223;-69
2022/11/30 01:49:59;;;;;;;7.10;6.50;;;;;;;;;;5118779;28;20207;-69
2022/11/30 01:52:28;;;;;;;7.22;6.63;;;;;;;;;;5118583;28;20268;-68
2022/11/30 01:54:57;;;;;;;7.53;6.82;;;;;;;;;;5118020;28;20210;-68
2022/11/30 01:57:26;;;;;;;7.38;6.68;;;;;;;;;;5118355;28;20195;-68
2022/11/30 01:59:55;;;;;;;6.70;6.10;;;;;;;;;;5118248;28;20214;-69
2022/11/30 02:02:27;;;;;;;6.97;6.28;;;;;;;;;;5118480;27;20575;-68
2022/11/30 02:04:56;;;;;;;6.70;6.10;;;;;;;;;;5118462;28;20214;-68
2022/11/30 02:07:24;;;;;;;6.95;6.35;;;;;;;;;;5118301;28;20252;-68
2022/11/30 02:09:52;;;;;;;7.10;6.40;;;;;;;;;;5118457;28;20645;-69
2022/11/30 02:12:23;;;;;;;6.18;5.68;;;;;;;;;;5118658;28;20259;-68
2022/11/30 02:14:55;;;;;;;6.65;6.05;;;;;;;;;;5118502;28;20256;-68
2022/11/30 02:17:26;;;;;;;6.70;6.10;;;;;;;;;;5118458;28;20206;-68
2022/11/30 02:20:01;;;;;;;6.22;5.72;;;;;;;;;;5118336;28;20202;-69
2022/11/30 02:22:34;;;;;;;6.63;6.03;;;;;;;;;;5118580;28;20500;-69
2022/11/30 02:25:07;;;;;;;5.80;5.30;;;;;;;;;;5117785;28;20282;-69
2022/11/30 02:27:46;;;;;;;6.65;6.05;;;;;;;;;;5117404;28;20215;-70
2022/11/30 02:30:17;;;;;;;6.75;6.15;;;;;;;;;;5117879;28;20502;-69
2022/11/30 02:32:48;;;;;;;6.22;5.72;;;;;;;;;;5118310;28;20651;-68
2022/11/30 02:35:18;;;;;;;6.35;5.75;;;;;;;;;;5117834;28;20598;-68
2022/11/30 02:37:46;;;;;;;6.35;5.75;;;;;;;;;;5117999;28;20565;-69
2022/11/30 02:40:15;;;;;;;5.82;5.30;;;;;;;;;;5118114;28;20272;-68
2022/11/30 02:42:43;;;;;;;5.88;5.38;;;;;;;;;;5118018;28;20285;-68
2022/11/30 02:45:11;;;;;;;5.68;5.18;;;;;;;;;;5118130;28;20202;-69
2022/11/30 02:47:42;;;;;;;6.05;5.53;;;;;;;;;;5118014;28;20226;-69
2022/11/30 02:50:12;;;;;;;6.22;5.63;;;;;;;;;;5117658;28;20206;-70
2022/11/30 02:52:40;;;;;;;6.00;5.50;;;;;;;;;;5117627;28;20271;-69
2022/11/30 02:55:09;;;;;;;5.60;5.10;;;;;;;;;;5118002;28;20207;-69
2022/11/30 02:57:37;;;;;;;5.63;5.13;;;;;;;;;;5117857;28;20206;-69
2022/11/30 03:00:07;;;;;;;5.68;5.18;;;;;;;;;;5117933;28;20211;-69
2022/11/30 03:02:34;;;;;;;6.05;5.55;;;;;;;;;;5117351;28;20574;-70
2022/11/30 03:05:04;;;;;;;5.68;5.18;;;;;;;;;;5118515;28;20525;-69
2022/11/30 03:07:32;;;;;;;6.03;5.47;;;;;;;;;;5120890;28;20233;-70
2022/11/30 03:09:59;;;;;;;5.93;5.35;;;;;;;;;;5120976;28;20199;-68
2022/11/30 03:12:27;;;;;;;5.78;5.28;;;;;;;;;;5121264;28;20207;-69
2022/11/30 03:14:55;;;;;;;5.50;5.00;;;;;;;;;;5121297;28;20203;-70
2022/11/30 03:17:23;;;;;;;5.22;4.72;;;;;;;;;;5120845;28;20203;-69
2022/11/30 03:19:51;;;;;;;5.72;5.22;;;;;;;;;;5120881;28;20202;-69
2022/11/30 03:22:20;;;;;;;5.90;5.40;;;;;;;;;;5120749;28;20266;-70
2022/11/30 03:24:48;;;;;;;5.30;4.80;;;;;;;;;;5121000;28;20747;-69
2022/11/30 03:27:15;;;;;;;5.70;5.20;;;;;;;;;;5121013;28;20648;-69
2022/11/30 03:29:43;;;;;;;5.45;4.95;;;;;;;;;;5120924;28;20199;-69
2022/11/30 03:32:11;;;;;;;5.50;5.00;;;;;;;;;;5121294;28;20629;-70
2022/11/30 03:34:39;;;;;;;5.30;4.90;;;;;;;;;;5121348;28;20203;-70
2022/11/30 03:37:07;;;;;;;5.43;4.93;;;;;;;;;;5121026;28;20206;-70
2022/11/30 03:39:36;;;;;;;5.70;5.10;;;;;;;;;;5120815;28;20264;-70
2022/11/30 03:42:03;;;;;;;5.75;5.25;;;;;;;;;;5120844;28;20203;-70
2022/11/30 03:44:31;;;;;;;5.78;5.28;;;;;;;;;;5120616;28;20203;-69
2022/11/30 03:46:59;;;;;;;5.35;4.85;;;;;;;;;;5121403;28;20542;-69
2022/11/30 03:49:26;;;;;;;5.60;5.10;;;;;;;;;;5120342;28;20223;-70
2022/11/30 03:51:54;;;;;;;5.43;4.93;;;;;;;;;;5120311;28;20222;-69
2022/11/30 03:54:22;;;;;;;5.65;5.15;;;;;;;;;;5120785;28;20502;-70
2022/11/30 03:56:51;;;;;;;5.70;5.20;;;;;;;;;;5120710;28;20202;-69
2022/11/30 03:59:18;;;;;;;5.45;4.95;;;;;;;;;;5120603;28;20203;-70
2022/11/30 04:01:46;;;;;;;5.13;4.63;;;;;;;;;;5120323;27;20286;-69
2022/11/30 04:04:14;;;;;;;5.55;5.05;;;;;;;;;;5120417;28;20547;-70
2022/11/30 04:06:41;;;;;;;5.75;5.25;;;;;;;;;;5120656;28;20213;-69
2022/11/30 04:09:10;;;;;;;4.97;4.57;;;;;;;;;;5120023;28;20226;-70
2022/11/30 04:11:37;;;;;;;4.90;4.50;;;;;;;;;;5120118;28;20226;-69
2022/11/30 04:14:06;;;;;;;4.90;4.50;;;;;;;;;;5120042;28;20560;-69
2022/11/30 04:16:34;;;;;;;5.63;5.13;;;;;;;;;;5119384;28;20484;-69
2022/11/30 04:19:02;;;;;;;5.53;5.03;;;;;;;;;;5119925;28;20199;-69
2022/11/30 04:21:30;;;;;;;5.53;5.03;;;;;;;;;;5119765;28;20673;-69
2022/11/30 04:23:57;;;;;;;5.25;4.75;;;;;;;;;;5119597;28;20238;-70
2022/11/30 04:26:25;;;;;;;5.07;4.65;;;;;;;;;;5119539;28;20203;-70
2022/11/30 04:28:53;;;;;;;5.50;4.97;;;;;;;;;;5119433;28;20589;-69
2022/11/30 04:31:22;;;;;;;5.60;5.10;;;;;;;;;;5119447;28;20483;-69
2022/11/30 04:33:53;;;;;;;4.82;4.38;;;;;;;;;;5119461;28;20210;-69
2022/11/30 04:36:21;;;;;;;5.53;4.95;;;;;;;;;;5119472;28;20657;-70
2022/11/30 04:38:49;;;;;;;5.30;4.80;;;;;;;;;;5119689;28;20478;-70
2022/11/30 04:41:16;;;;;;;4.95;4.55;;;;;;;;;;5119407;28;20203;-71
2022/11/30 04:43:44;;;;;;;5.28;4.78;;;;;;;;;;5118782;28;20195;-71
2022/11/30 04:46:12;;;;;;;5.35;4.85;;;;;;;;;;5119367;28;20203;-70
2022/11/30 04:48:41;;;;;;;5.53;4.93;;;;;;;;;;5118975;28;20258;-70
2022/11/30 04:51:09;;;;;;;5.75;5.20;;;;;;;;;;5119333;28;20245;-70
2022/11/30 04:53:38;;;;;;;5.90;5.13;;;;;;;;;;5119458;28;20203;-70
2022/11/30 04:56:06;;;;;;;5.60;4.78;;;;;;;;;;5119676;28;20262;-70
2022/11/30 04:58:34;;;;;;;5.47;4.97;;;;;;;;;;5119138;28;20212;-70
2022/11/30 05:01:01;;;;;;;5.43;4.93;;;;;;;;;;5119146;28;20203;-70
2022/11/30 05:03:28;;;;;;;5.45;4.95;;;;;;;;;;5119216;28;20210;-71
2022/11/30 05:05:57;;;;;;;5.55;5.03;;;;;;;;;;5119212;28;20213;-69
2022/11/30 05:08:25;;;;;;;5.30;4.80;;;;;;;;;;5118840;28;20625;-69
2022/11/30 05:10:53;;;;;;;5.85;5.35;;;;;;;;;;5118301;28;20199;-69
2022/11/30 05:13:20;;;;;;;5.55;5.05;;;;;;;;;;5118394;27;20218;-72
2022/11/30 05:15:47;;;;;;;5.40;4.90;;;;;;;;;;5118500;28;20213;-69
2022/11/30 05:18:15;;;;;;;5.47;4.97;;;;;;;;;;5118265;28;20209;-69
2022/11/30 05:20:43;;;;;;;5.45;4.95;;;;;;;;;;5118583;28;20235;-70
2022/11/30 05:23:11;;;;;;;5.70;5.15;;;;;;;;;;5118292;27;20590;-70
2022/11/30 05:25:39;;;;;;;5.90;5.30;;;;;;;;;;5118468;28;20217;-71
2022/11/30 05:28:06;;;;;;;5.97;5.47;;;;;;;;;;5117433;28;20203;-72
2022/11/30 05:30:34;;;;;;;5.68;5.18;;;;;;;;;;5117777;28;20202;-69
2022/11/30 05:33:01;;;;;;;6.05;5.45;;;;;;;;;;5118103;28;20199;-69
2022/11/30 05:35:29;;;;;;;5.57;5.07;;;;;;;;;;5117609;28;20207;-69
2022/11/30 05:37:56;;;;;;;6.00;5.50;;;;;;;;;;5117207;28;20214;-69
2022/11/30 05:40:26;;;;;;;6.10;5.50;;;;;;;;;;5117122;28;20485;-70
2022/11/30 05:42:56;;;;;;;5.35;4.85;;;;;;;;;;5117502;28;20563;-69
2022/11/30 05:45:23;;;;;;;5.78;5.28;;;;;;;;;;5117264;28;20218;-69
2022/11/30 05:47:51;;;;;;;5.93;5.43;;;;;;;;;;5117403;28;20593;-69
2022/11/30 05:50:18;;;;;;;5.70;5.20;;;;;;;;;;5116813;28;20227;-69
2022/11/30 05:52:46;;;;;;;6.45;5.72;;;;;;;;;;5116979;28;20194;-70
2022/11/30 05:55:13;;;;;;;6.45;5.85;;;;;;;;;;5116429;28;20203;-69
2022/11/30 05:57:42;;;;;;;6.45;5.85;;;;;;;;;;5116148;28;20213;-69
2022/11/30 06:00:10;;;;;;;6.68;6.07;;;;;;;;;;5116282;28;20293;-69
2022/11/30 06:02:37;;;;;;;6.18;5.57;;;;;;;;;;5116276;28;20203;-68
2022/11/30 06:05:05;;;;;;;5.85;5.25;;;;;;;;;;5115950;28;20210;-70
2022/11/30 06:07:32;;;;;;;6.90;6.00;;;;;;;;;;5115741;28;20218;-69
2022/11/30 06:10:00;;;;;;;6.43;5.82;;;;;;;;;;5115866;28;20231;-70
2022/11/30 06:12:27;;;;;;;6.47;5.88;;;;;;;;;;5116173;28;20207;-69
2022/11/30 06:14:56;;;;;;;6.63;6.03;;;;;;;;;;5116109;28;20195;-69
2022/11/30 06:17:23;;;;;;;6.35;5.75;;;;;;;;;;5115135;28;20611;-69
2022/11/30 06:19:50;;;;;;;6.97;6.28;;;;;;;;;;5114679;28;20700;-69
2022/11/30 06:22:18;;;;;;;6.45;5.85;;;;;;;;;;5115034;28;20231;-70
2022/11/30 06:24:45;;;;;;;7.03;6.35;;;;;;;;;;5115357;28;20198;-70
2022/11/30 06:27:12;;;;;;;6.68;6.07;;;;;;;;;;5115307;28;20202;-69
2022/11/30 06:29:40;;;;;;;6.43;5.80;;;;;;;;;;5115469;28;20222;-70
2022/11/30 06:32:09;;;;;;;6.65;6.05;;;;;;;;;;5115265;28;20708;-69
2022/11/30 06:34:36;;;;;;;6.65;6.00;;;;;;;;;;5115337;28;20203;-70
2022/11/30 06:37:03;;;;;;;6.53;5.90;;;;;;;;;;5115546;28;20210;-70
2022/11/30 06:39:31;;;;;;;6.63;6.00;;;;;;;;;;5115873;28;20201;-68
2022/11/30 06:41:58;;;;;;;7.22;6.38;;;;;;;;;;5119941;28;20195;-69
2022/11/30 06:44:26;;;;;;;6.28;5.68;;;;;;;;;;5118645;28;20203;-69
2022/11/30 06:46:53;;;;;;;6.65;6.03;;;;;;;;;;5119416;28;20213;-69
2022/11/30 06:49:22;;;;;;;6.80;6.20;;;;;;;;;;5118888;28;20322;-69
2022/11/30 06:51:50;;;;;;;6.88;6.28;;;;;;;;;;5118305;28;20398;-69
2022/11/30 06:54:17;;;;;;;6.75;6.15;;;;;;;;;;5118753;28;20479;-69
2022/11/30 06:56:45;;;;;;;7.00;6.30;;;;;;;;;;5119366;28;20614;-70
2022/11/30 06:59:12;;;;;;;6.70;6.00;;;;;;;;;;5118689;28;20234;-71
2022/11/30 07:01:39;;;;;;;7.30;6.60;;;;;;;;;;5118739;28;20739;-70
2022/11/30 07:04:07;;;;;;;7.00;6.30;;;;;;;;;;5119117;28;20209;-69
2022/11/30 07:06:35;;;;;;;7.00;6.28;;;;;;;;;;5118899;27;20210;-69
2022/11/30 07:09:03;;;;;;;7.25;6.55;;;;;;;;;;5119292;28;20222;-69
2022/11/30 07:11:31;;;;;;;6.60;5.90;;;;;;;;;;5118835;28;20207;-69
2022/11/30 07:13:58;;;;;;;6.90;6.30;;;;;;;;;;5118462;28;20206;-69
2022/11/30 07:16:26;;;;;;;7.38;6.68;;;;;;;;;;5118812;28;20312;-69
2022/11/30 07:18:53;;;;;;;7.07;6.38;;;;;;;;;;5119140;28;20197;-69
2022/11/30 07:21:20;;;;;;;7.18;6.47;;;;;;;;;;5118243;28;20199;-68
2022/11/30 07:26:34;;;;;;;7.25;6.55;;;;;;;;;;5118609;28;20634;-67
2022/11/30 07:29:04;;;;;;;7.90;7.10;;;;;;;;;;5118580;28;20233;-69
2022/11/30 07:31:33;;;;;;;7.65;6.70;;;;;;;;;;5118938;28;20205;-68
2022/11/30 07:34:03;;;;;;;7.97;7.28;;;;;;;;;;5119566;28;20613;-69
2022/11/30 07:36:31;;;;;;;7.65;6.88;;;;;;;;;;5119521;28;20230;-69
2022/11/30 07:39:00;;;;;;;7.20;6.47;;;;;;;;;;5119229;28;20199;-69
2022/11/30 07:41:27;;;;;;;7.25;6.55;;;;;;;;;;5118366;28;20195;-69
2022/11/30 07:43:55;;;;;;;8.00;7.00;;;;;;;;;;5118148;28;20210;-69
2022/11/30 07:46:22;;;;;;;7.60;6.85;;;;;;;;;;5118716;28;20562;-69
2022/11/30 07:48:49;;;;;;;7.13;6.43;;;;;;;;;;5118294;28;20203;-70
2022/11/30 07:51:18;;;;;;;7.90;7.10;;;;;;;;;;5117421;28;20198;-70
2022/11/30 07:53:46;;;;;;;7.78;7.07;;;;;;;;;;5118520;28;20228;-69
2022/11/30 07:56:16;;;;;;;7.43;6.53;;;;;;;;;;5118576;28;20195;-70
2022/11/30 07:58:44;;;;;;;8.13;7.32;;;;;;;;;;5118517;28;20203;-70
2022/11/30 08:01:12;;;;;;;8.02;6.85;;;;;;;;;;5118559;28;20238;-69
2022/11/30 08:03:39;;;;;;;7.95;7.15;;;;;;;;;;5118849;28;20203;-70
2022/11/30 08:06:08;;;;;;;8.13;7.30;;;;;;;;;;5118194;28;20207;-68
2022/11/30 08:08:36;;;;;;;8.38;7.55;;;;;;;;;;5118229;28;20206;-68
2022/11/30 08:11:04;;;;;;;8.77;7.28;;;;;;;;;;5117632;28;20309;-68
2022/11/30 08:13:33;;;;;;;8.23;7.32;;;;;;;;;;5118513;28;20210;-69
2022/11/30 08:16:02;;;;;;;8.35;7.07;;;;;;;;;;5117701;28;20229;-68
2022/11/30 08:18:29;;;;;;;7.65;6.93;;;;;;;;;;5116844;28;20267;-69
2022/11/30 08:20:58;;;;;;;8.73;7.15;;;;;;;;;;5117119;28;20199;-68
2022/11/30 08:23:26;;;;;;;7.50;6.78;;;;;;;;;;5117414;28;20329;-68
2022/11/30 08:25:53;;;;;;;7.93;7.05;;;;;;;;;;5117183;28;20198;-68
2022/11/30 08:28:20;;;;;;;8.00;7.20;;;;;;;;;;5117345;28;20547;-69
2022/11/30 08:30:49;;;;;;;7.50;6.70;;;;;;;;;;5117682;28;20215;-69
2022/11/30 08:33:17;;;;;;;8.20;7.40;;;;;;;;;;5117727;28;20577;-68
2022/11/30 08:35:44;;;;;;;7.30;6.53;;;;;;;;;;5118354;28;20221;-68
2022/11/30 08:38:11;;;;;;;7.90;7.10;;;;;;;;;;5117753;28;20490;-68
2022/11/30 08:40:39;;;;;;;7.85;7.05;;;;;;;;;;5117360;28;20224;-68
2022/11/30 08:43:06;;;;;;;8.20;7.40;;;;;;;;;;5117309;28;20203;-68
2022/11/30 08:45:34;;;;;;;8.75;7.85;;;;;;;;;;5117810;28;20203;-68
2022/11/30 08:48:03;;;;;;;7.45;6.75;;;;;;;;;;5117529;28;20225;-68
2022/11/30 08:50:31;;;;;;;8.07;7.28;;;;;;;;;;5116536;28;20233;-67
2022/11/30 08:52:58;;;;;;;7.93;7.22;;;;;;;;;;5116522;28;20195;-67
2022/11/30 08:55:25;;;;;;;7.93;7.10;;;;;;;;;;5117029;27;20306;-70
2022/11/30 08:57:53;;;;;;;7.93;7.13;;;;;;;;;;5117369;28;20203;-69
2022/11/30 09:00:21;;;;;;;8.05;7.25;;;;;;;;;;5116908;28;20708;-68
2022/11/30 09:02:49;;;;;;;7.93;7.13;;;;;;;;;;5115343;28;20206;-68
2022/11/30 09:05:17;;;;;;;8.00;7.20;;;;;;;;;;5116207;28;20214;-68
2022/11/30 09:07:45;;;;;;;7.63;6.93;;;;;;;;;;5117320;28;20234;-69
2022/11/30 09:10:13;;;;;;;8.00;7.20;;;;;;;;;;5117176;28;20253;-70
2022/11/30 09:12:41;;;;;;;8.40;7.28;;;;;;;;;;5116256;28;20195;-69
2022/11/30 09:15:09;;;;;;;8.40;7.57;;;;;;;;;;5116611;28;20203;-67
2022/11/30 09:17:36;;;;;;;7.82;7.07;;;;;;;;;;5116220;28;20753;-70
2022/11/30 09:20:04;;;;;;;7.82;7.13;;;;;;;;;;5116809;28;20616;-70
2022/11/30 09:22:33;;;;;;;8.38;7.50;;;;;;;;;;5115208;28;20241;-70
2022/11/30 09:25:00;;;;;;;8.80;7.90;;;;;;;;;;5116000;28;20209;-70
2022/11/30 09:27:29;;;;;;;8.50;7.60;;;;;;;;;;5116419;28;20554;-69
2022/11/30 09:29:57;;;;;;;7.93;7.20;;;;;;;;;;5116041;28;20236;-69
2022/11/30 09:32:24;;;;;;;8.43;7.57;;;;;;;;;;5115362;28;20221;-69
2022/11/30 09:34:51;;;;;;;7.75;6.97;;;;;;;;;;5116263;28;20213;-70
2022/11/30 09:37:19;;;;;;;8.13;7.32;;;;;;;;;;5114804;28;20195;-69
2022/11/30 09:39:47;;;;;;;7.70;6.97;;;;;;;;;;5116092;28;20199;-69
2022/11/30 09:42:27;;;;;;;8.45;7.53;;;;;;;;;;5116133;28;20202;-69
2022/11/30 09:45:00;;;;;;;8.25;7.45;;;;;;;;;;5115976;28;20585;-68
2022/11/30 09:47:34;;;;;;;8.02;7.22;;;;;;;;;;5116173;28;20215;-69
2022/11/30 09:50:04;;;;;;;7.80;7.00;;;;;;;;;;5115239;28;20219;-70
2022/11/30 09:52:33;;;;;;;7.47;6.78;;;;;;;;;;5115417;28;20203;-69
2022/11/30 09:55:06;;;;;;;8.38;7.57;;;;;;;;;;5115641;28;20194;-70
2022/11/30 09:57:35;;;;;;;8.20;7.40;;;;;;;;;;5116273;28;20203;-68
2022/11/30 10:00:04;;;;;;;8.48;7.68;;;;;;;;;;5115853;28;20475;-69
2022/11/30 10:02:33;;;;;;;8.23;7.43;;;;;;;;;;5115633;28;20613;-69
2022/11/30 10:05:01;;;;;;;8.55;7.65;;;;;;;;;;5114575;28;20207;-69
2022/11/30 10:07:38;;;;;;;8.15;7.35;;;;;;;;;;5115425;28;20199;-69
2022/11/30 10:10:10;;;;;;;8.63;7.72;;;;;;;;;;5114847;28;20226;-69
2022/11/30 10:12:40;;;;;;;8.32;7.47;;;;;;;;;;5114576;28;20206;-69
2022/11/30 10:15:22;;;;;;;7.70;7.00;;;;;;;;;;5114812;28;20195;-68
2022/11/30 10:17:53;;;;;;;7.30;6.60;;;;;;;;;;5112840;28;20203;-69
2022/11/30 10:20:26;;;;;;;8.35;7.55;;;;;;;;;;5114237;28;20596;-68
2022/11/30 10:22:59;;;;;;;7.70;6.90;;;;;;;;;;5114800;28;20231;-70
2022/11/30 10:25:37;;;;;;;7.93;6.90;;;;;;;;;;5114558;28;20309;-69
2022/11/30 10:28:09;;;;;;;8.48;7.60;;;;;;;;;;5114925;28;20221;-69
2022/11/30 10:30:37;;;;;;;8.35;7.55;;;;;;;;;;5113635;28;20219;-69
2022/11/30 10:33:11;;;;;;;8.07;7.35;;;;;;;;;;5114285;28;20638;-70
2022/11/30 10:35:39;;;;;;;8.30;7.50;;;;;;;;;;5114633;28;20203;-70
2022/11/30 10:38:12;;;;;;;8.43;7.53;;;;;;;;;;5114184;28;20290;-70
2022/11/30 10:40:44;;;;;;;7.93;7.18;;;;;;;;;;5114196;28;20516;-70
2022/11/30 10:43:17;;;;;;;8.40;7.60;;;;;;;;;;5114315;28;21181;-69
2022/11/30 10:45:48;;;;;;;8.07;7.28;;;;;;;;;;5114923;28;20203;-69
2022/11/30 10:48:18;;;;;;;7.70;7.00;;;;;;;;;;5114772;28;20202;-70
2022/11/30 10:50:45;;;;;;;8.48;7.68;;;;;;;;;;5114748;28;20332;-70
2022/11/30 10:53:13;;;;;;;7.93;7.13;;;;;;;;;;5114586;28;20203;-70
2022/11/30 10:55:44;;;;;;;8.35;7.43;;;;;;;;;;5113623;28;20195;-71
2022/11/30 10:58:19;;;;;;;8.57;7.72;;;;;;;;;;5113612;28;20202;-68
2022/11/30 11:00:51;;;;;;;8.18;7.38;;;;;;;;;;5113993;28;20424;-69
2022/11/30 11:03:23;;;;;;;8.68;7.88;;;;;;;;;;5113842;28;20206;-70
2022/11/30 11:06:03;;;;;;;8.60;7.80;;;;;;;;;;5113130;28;20209;-70
2022/11/30 11:08:30;;;;;;;8.30;7.50;;;;;;;;;;5112915;28;20463;-69
2022/11/30 11:10:59;;;;;;;8.55;7.70;;;;;;;;;;5113543;28;20222;-69
2022/11/30 11:13:37;;;;;;;8.15;7.22;;;;;;;;;;5114905;28;20207;-69
2022/11/30 11:16:05;;;;;;;8.77;7.97;;;;;;;;;;5114002;28;20638;-69
2022/11/30 11:18:33;;;;;;;8.05;7.25;;;;;;;;;;5113395;28;20210;-68
2022/11/30 11:21:02;;;;;;;8.15;7.35;;;;;;;;;;5113815;28;20209;-69
2022/11/30 11:23:32;;;;;;;7.65;6.93;;;;;;;;;;5113415;28;20294;-69
2022/11/30 11:26:01;;;;;;;7.57;6.88;;;;;;;;;;5113126;28;20205;-69
2022/11/30 11:28:29;;;;;;;8.57;7.68;;;;;;;;;;5115509;28;20203;-69
2022/11/30 11:30:58;;;;;;;8.48;7.55;;;;;;;;;;5114804;28;20230;-69
2022/11/30 11:33:26;;;;;;;7.70;7.00;;;;;;;;;;5116683;28;20202;-69
2022/11/30 11:35:54;;;;;;;8.02;7.28;;;;;;;;;;5110852;28;20712;-69
2022/11/30 11:38:23;;;;;;;7.65;6.95;;;;;;;;;;5096221;28;20203;-69
2022/11/30 11:40:59;;;;;;;7.13;6.43;;;;;;;;;;5095520;28;20214;-69
2022/11/30 11:43:29;;;;;;;8.10;7.30;;;;;;;;;;5095843;28;20280;-69
2022/11/30 11:45:57;;;;;;;7.72;6.95;;;;;;;;;;5095698;28;20204;-69
2022/11/30 11:48:30;;;;;;;7.45;6.75;;;;;;;;;;5096046;28;20203;-69
2022/11/30 11:50:58;;;;;;;8.18;7.38;;;;;;;;;;5102524;28;20223;-69
2022/11/30 11:53:36;;;;;;;7.50;6.80;;;;;;;;;;5116116;28;20623;-69
2022/11/30 11:56:10;;;;;;;7.95;7.15;;;;;;;;;;5117474;28;20300;-69
2022/11/30 11:58:42;;;;;;;7.45;6.80;;;;;;;;;;5116853;27;20771;-69
2022/11/30 12:01:12;;;;;;;7.72;7.03;;;;;;;;;;5116777;27;20191;-69
2022/11/30 12:03:42;;;;;;;7.50;6.80;;;;;;;;;;5115870;28;20206;-69
2022/11/30 12:06:11;;;;;;;7.50;6.80;;;;;;;;;;5115820;28;20472;-69
2022/11/30 12:08:42;;;;;;;8.00;7.20;;;;;;;;;;5116997;28;20203;-68
2022/11/30 12:11:13;;;;;;;7.72;7.03;;;;;;;;;;5115381;28;20235;-69
2022/11/30 12:13:42;;;;;;;7.50;6.80;;;;;;;;;;5115532;28;20198;-69
2022/11/30 12:16:22;;;;;;;7.57;6.88;;;;;;;;;;5115600;28;20713;-69
2022/11/30 12:18:52;;;;;;;7.57;6.88;;;;;;;;;;5096037;28;20544;-69
2022/11/30 12:21:26;;;;;;;7.30;6.60;;;;;;;;;;5096137;28;20249;-69
2022/11/30 12:24:07;;;;;;;7.50;6.80;;;;;;;;;;5096208;28;20495;-69
2022/11/30 12:26:37;;;;;;;7.20;6.57;;;;;;;;;;5096584;28;20211;-69
2022/11/30 12:29:17;;;;;;;7.75;7.05;;;;;;;;;;5096756;28;20204;-69
2022/11/30 12:31:52;;;;;;;7.65;6.95;;;;;;;;;;5095458;28;20219;-69
2022/11/30 12:34:23;;;;;;;7.47;6.72;;;;;;;;;;5096393;28;20205;-69
2022/11/30 12:36:54;;;;;;;7.80;7.00;;;;;;;;;;5095094;28;20494;-70
2022/11/30 12:39:29;;;;;;;7.18;6.47;;;;;;;;;;5094091;28;20206;-70
2022/11/30 12:41:59;;;;;;;7.90;7.20;;;;;;;;;;5095121;28;20200;-69
2022/11/30 12:44:34;;;;;;;7.68;6.97;;;;;;;;;;5099866;28;20230;-69
2022/11/30 12:47:09;;;;;;;7.53;6.82;;;;;;;;;;5115048;28;20501;-69
2022/11/30 12:49:43;;;;;;;7.65;6.95;;;;;;;;;;5116324;28;20199;-69
2022/11/30 12:52:19;;;;;;;7.40;6.70;;;;;;;;;;5114911;28;20215;-69
2022/11/30 12:54:53;;;;;;;7.53;6.82;;;;;;;;;;5115518;28;20494;-69
2022/11/30 12:57:22;;;;;;;6.80;6.20;;;;;;;;;;5116571;28;20244;-69
2022/11/30 12:59:55;;;;;;;6.90;6.20;;;;;;;;;;5115779;28;20203;-69
2022/11/30 13:02:41;;;;;;;7.43;6.75;;;;;;;;;;5114972;28;20197;-69
2022/11/30 13:05:11;;;;;;;7.45;6.75;;;;;;;;;;5114786;28;20195;-70
2022/11/30 13:07:40;;;;;;;7.45;6.75;;;;;;;;;;5114676;28;20543;-70
2022/11/30 13:10:17;;;;;;;7.78;7.07;;;;;;;;;;5115612;28;20203;-69
2022/11/30 13:12:46;;;;;;;7.47;6.78;;;;;;;;;;5114779;28;20228;-70
2022/11/30 13:15:18;;;;;;;6.90;6.30;;;;;;;;;;5114971;28;20206;-70
2022/11/30 13:17:46;;;;;;;6.90;6.30;;;;;;;;;;5115110;28;20233;-70
2022/11/30 13:20:17;;;;;;;6.88;6.28;;;;;;;;;;5115487;28;20199;-70
2022/11/30 13:22:49;;;;;;;6.80;6.20;;;;;;;;;;5114980;28;20239;-69
2022/11/30 13:25:21;;;;;;;7.00;6.40;;;;;;;;;;5114448;28;20213;-69
2022/11/30 13:27:51;;;;;;;7.10;6.50;;;;;;;;;;5114395;28;20271;-70
2022/11/30 13:30:25;;;;;;;7.45;6.82;;;;;;;;;;5114998;28;20207;-70
2022/11/30 13:32:52;;;;;;;7.00;6.40;;;;;;;;;;5114812;28;20198;-69
2022/11/30 13:35:37;;;;;;;7.40;6.70;;;;;;;;;;5114422;28;20199;-70
2022/11/30 13:38:05;;;;;;;6.80;6.20;;;;;;;;;;5104282;28;20198;-69
2022/11/30 13:40:33;;;;;;;7.13;6.53;;;;;;;;;;5114986;28;20225;-69
2022/11/30 13:43:00;;;;;;;6.53;5.93;;;;;;;;;;5114579;28;20684;-69
2022/11/30 13:45:33;;;;;;;8.40;6.35;;;;;;;;;;5114137;28;20209;-69
2022/11/30 13:48:01;;;;;;;7.10;6.50;;;;;;;;;;5113861;28;20238;-69
2022/11/30 13:50:35;;;;;;;6.80;6.20;;;;;;;;;;5113181;28;20207;-70
2022/11/30 13:53:35;;;;;;;6.93;6.32;;;;;;;;;;5113453;28;20202;-70
2022/11/30 13:56:08;;;;;;;6.78;6.18;;;;;;;;;;5114323;28;20205;-69
2022/11/30 13:58:35;;;;;;;6.75;6.15;;;;;;;;;;5114523;28;20235;-68
2022/11/30 14:01:21;;;;;;;7.13;6.53;;;;;;;;;;5113750;28;20242;-69
2022/11/30 14:04:03;;;;;;;6.93;6.32;;;;;;;;;;5113879;28;20202;-68
2022/11/30 14:06:48;;;;;;;6.38;5.88;;;;;;;;;;5113779;28;20199;-69
2022/11/30 14:09:16;;;;;;;6.30;5.80;;;;;;;;;;5114905;28;20217;-68
2022/11/30 14:11:44;;;;;;;7.13;6.43;;;;;;;;;;5113859;28;20225;-68
2022/11/30 14:14:30;;;;;;;6.55;5.97;;;;;;;;;;5114150;28;20203;-69
2022/11/30 14:16:59;;;;;;;6.88;6.28;;;;;;;;;;5113503;28;20199;-69
2022/11/30 14:19:27;;;;;;;6.85;6.25;;;;;;;;;;5113560;28;20195;-68
2022/11/30 14:21:54;;;;;;;6.70;6.10;;;;;;;;;;5113964;28;20226;-70
2022/11/30 14:24:23;;;;;;;6.95;6.35;;;;;;;;;;5113993;28;20238;-69
2022/11/30 14:26:52;;;;;;;6.57;6.00;;;;;;;;;;5113671;28;20289;-69
2022/11/30 14:29:20;;;;;;;6.63;6.03;;;;;;;;;;5113963;28;20207;-69
2022/11/30 14:31:52;;;;;;;6.78;6.10;;;;;;;;;;5113401;28;20276;-69
2022/11/30 14:34:22;;;;;;;6.25;5.75;;;;;;;;;;5114422;28;20202;-69
2022/11/30 14:36:52;;;;;;;7.03;6.32;;;;;;;;;;5113679;28;20234;-68
2022/11/30 14:39:32;;;;;;;6.47;5.88;;;;;;;;;;5114112;28;20210;-69
2022/11/30 14:42:00;;;;;;;6.95;6.28;;;;;;;;;;5111614;28;20199;-69
2022/11/30 14:44:27;;;;;;;6.70;6.10;;;;;;;;;;5114071;28;20207;-70
2022/11/30 14:46:55;;;;;;;6.47;5.88;;;;;;;;;;5113222;28;20202;-68
2022/11/30 14:49:25;;;;;;;6.55;6.03;;;;;;;;;;5112837;28;20205;-69
2022/11/30 14:51:53;;;;;;;6.47;5.97;;;;;;;;;;5114599;28;20251;-68
2022/11/30 14:54:32;;;;;;;6.55;6.05;;;;;;;;;;5113664;28;20661;-69
2022/11/30 14:57:01;;;;;;;6.72;6.13;;;;;;;;;;5113641;28;20202;-69